sensor_id;sensor_type;location;lat;lon;timestamp;P1;durP1;ratioP1;P2;durP2;ratioP2
45358;SDS011;31096;49.292;8.710;2023-02-04T00:01:02;5.72;;;3.85;;
45358;SDS011;31096;49.292;8.710;2023-02-04T00:05:53;7.00;;;4.10;;
45358;SDS011;31096;49.292;8.710;2023-02-04T00:10:44;7.23;;;4.50;;
45358;SDS011;31096;49.292;8.710;2023-02-04T00:15:35;6.53;;;4.15;;
45358;SDS011;31096;49.292;8.710;2023-02-04T00:20:26;7.17;;;4.30;;
45358;SDS011;31096;49.292;8.710;2023-02-04T00:25:17;8.67;;;3.97;;
45358;SDS011;31096;49.292;8.710;2023-02-04T00:30:08;7.32;;;3.90;;
45358;SDS011;31096;49.292;8.710;2023-02-04T00:35:00;7.23;;;4.40;;
45358;SDS011;31096;49.292;8.710;2023-02-04T00:39:56;10.00;;;4.70;;
45358;SDS011;31096;49.292;8.710;2023-02-04T00:44:47;6.30;;;4.03;;
45358;SDS011;31096;49.292;8.710;2023-02-04T00:49:37;7.28;;;4.47;;
45358;SDS011;31096;49.292;8.710;2023-02-04T00:54:28;7.68;;;4.50;;
45358;SDS011;31096;49.292;8.710;2023-02-04T00:59:19;7.67;;;4.20;;
45358;SDS011;31096;49.292;8.710;2023-02-04T01:04:09;7.40;;;4.47;;
45358;SDS011;31096;49.292;8.710;2023-02-04T01:09:00;6.75;;;2.63;;
45358;SDS011;31096;49.292;8.710;2023-02-04T01:13:51;7.50;;;2.93;;
45358;SDS011;31096;49.292;8.710;2023-02-04T01:18:42;4.80;;;2.50;;
45358;SDS011;31096;49.292;8.710;2023-02-04T01:23:33;7.00;;;3.13;;
45358;SDS011;31096;49.292;8.710;2023-02-04T01:28:23;4.63;;;2.10;;
45358;SDS011;31096;49.292;8.710;2023-02-04T01:33:14;6.38;;;2.45;;
45358;SDS011;31096;49.292;8.710;2023-02-04T01:38:05;6.80;;;2.43;;
45358;SDS011;31096;49.292;8.710;2023-02-04T01:42:55;5.50;;;2.20;;
45358;SDS011;31096;49.292;8.710;2023-02-04T01:47:46;7.47;;;2.60;;
45358;SDS011;31096;49.292;8.710;2023-02-04T01:52:37;7.27;;;2.47;;
45358;SDS011;31096;49.292;8.710;2023-02-04T01:57:28;5.47;;;2.50;;
45358;SDS011;31096;49.292;8.710;2023-02-04T02:02:43;4.80;;;2.00;;
45358;SDS011;31096;49.292;8.710;2023-02-04T02:07:36;7.63;;;2.20;;
45358;SDS011;31096;49.292;8.710;2023-02-04T02:12:27;7.17;;;2.70;;
45358;SDS011;31096;49.292;8.710;2023-02-04T02:17:18;5.97;;;2.55;;
45358;SDS011;31096;49.292;8.710;2023-02-04T02:27:07;5.53;;;2.20;;
45358;SDS011;31096;49.292;8.710;2023-02-04T02:31:59;7.23;;;3.03;;
45358;SDS011;31096;49.292;8.710;2023-02-04T02:36:50;8.25;;;2.28;;
45358;SDS011;31096;49.292;8.710;2023-02-04T02:41:41;6.13;;;2.30;;
45358;SDS011;31096;49.292;8.710;2023-02-04T02:46:32;4.32;;;1.67;;
45358;SDS011;31096;49.292;8.710;2023-02-04T02:51:23;4.47;;;1.80;;
45358;SDS011;31096;49.292;8.710;2023-02-04T02:56:13;7.17;;;2.53;;
45358;SDS011;31096;49.292;8.710;2023-02-04T03:01:06;5.72;;;1.83;;
45358;SDS011;31096;49.292;8.710;2023-02-04T03:06:12;5.45;;;2.13;;
45358;SDS011;31096;49.292;8.710;2023-02-04T03:11:06;5.20;;;2.23;;
45358;SDS011;31096;49.292;8.710;2023-02-04T03:15:56;6.40;;;2.50;;
45358;SDS011;31096;49.292;8.710;2023-02-04T03:20:48;7.03;;;2.27;;
45358;SDS011;31096;49.292;8.710;2023-02-04T03:25:39;10.15;;;2.30;;
45358;SDS011;31096;49.292;8.710;2023-02-04T03:30:30;6.17;;;1.90;;
45358;SDS011;31096;49.292;8.710;2023-02-04T03:35:21;9.00;;;2.67;;
45358;SDS011;31096;49.292;8.710;2023-02-04T03:40:12;6.47;;;2.73;;
45358;SDS011;31096;49.292;8.710;2023-02-04T03:45:03;6.60;;;2.35;;
45358;SDS011;31096;49.292;8.710;2023-02-04T03:49:54;10.15;;;3.10;;
45358;SDS011;31096;49.292;8.710;2023-02-04T03:54:45;7.38;;;3.15;;
45358;SDS011;31096;49.292;8.710;2023-02-04T03:59:35;7.53;;;2.60;;
45358;SDS011;31096;49.292;8.710;2023-02-04T04:04:26;11.02;;;2.80;;
45358;SDS011;31096;49.292;8.710;2023-02-04T04:09:17;8.60;;;2.60;;
45358;SDS011;31096;49.292;8.710;2023-02-04T04:14:07;7.80;;;2.40;;
45358;SDS011;31096;49.292;8.710;2023-02-04T04:18:58;8.18;;;2.47;;
45358;SDS011;31096;49.292;8.710;2023-02-04T04:23:49;9.37;;;2.57;;
45358;SDS011;31096;49.292;8.710;2023-02-04T04:28:39;9.87;;;2.73;;
45358;SDS011;31096;49.292;8.710;2023-02-04T04:33:30;9.95;;;2.90;;
45358;SDS011;31096;49.292;8.710;2023-02-04T04:38:21;8.37;;;2.70;;
45358;SDS011;31096;49.292;8.710;2023-02-04T04:43:11;7.03;;;2.70;;
45358;SDS011;31096;49.292;8.710;2023-02-04T04:48:02;6.82;;;2.30;;
45358;SDS011;31096;49.292;8.710;2023-02-04T04:52:53;8.67;;;2.63;;
45358;SDS011;31096;49.292;8.710;2023-02-04T04:57:44;7.32;;;1.92;;
45358;SDS011;31096;49.292;8.710;2023-02-04T05:02:35;7.97;;;2.70;;
45358;SDS011;31096;49.292;8.710;2023-02-04T05:07:25;5.90;;;2.90;;
45358;SDS011;31096;49.292;8.710;2023-02-04T05:12:16;8.68;;;3.05;;
45358;SDS011;31096;49.292;8.710;2023-02-04T05:17:07;5.70;;;2.60;;
45358;SDS011;31096;49.292;8.710;2023-02-04T05:21:58;9.87;;;2.20;;
45358;SDS011;31096;49.292;8.710;2023-02-04T05:26:50;8.02;;;2.65;;
45358;SDS011;31096;49.292;8.710;2023-02-04T05:31:41;6.37;;;1.90;;
45358;SDS011;31096;49.292;8.710;2023-02-04T05:36:31;6.63;;;2.50;;
45358;SDS011;31096;49.292;8.710;2023-02-04T05:41:22;8.47;;;2.70;;
45358;SDS011;31096;49.292;8.710;2023-02-04T05:46:13;9.10;;;2.73;;
45358;SDS011;31096;49.292;8.710;2023-02-04T05:51:03;8.85;;;3.00;;
45358;SDS011;31096;49.292;8.710;2023-02-04T05:55:54;6.00;;;2.30;;
45358;SDS011;31096;49.292;8.710;2023-02-04T06:00:45;9.83;;;2.83;;
45358;SDS011;31096;49.292;8.710;2023-02-04T06:05:36;7.90;;;2.70;;
45358;SDS011;31096;49.292;8.710;2023-02-04T06:10:26;13.73;;;3.47;;
45358;SDS011;31096;49.292;8.710;2023-02-04T06:15:17;10.50;;;2.63;;
45358;SDS011;31096;49.292;8.710;2023-02-04T06:20:09;8.90;;;3.20;;
45358;SDS011;31096;49.292;8.710;2023-02-04T06:25:02;12.35;;;3.13;;
45358;SDS011;31096;49.292;8.710;2023-02-04T06:29:54;14.47;;;4.33;;
45358;SDS011;31096;49.292;8.710;2023-02-04T06:34:46;8.40;;;3.13;;
45358;SDS011;31096;49.292;8.710;2023-02-04T06:39:37;8.47;;;2.93;;
45358;SDS011;31096;49.292;8.710;2023-02-04T06:44:28;6.65;;;2.47;;
45358;SDS011;31096;49.292;8.710;2023-02-04T06:49:18;7.17;;;2.60;;
45358;SDS011;31096;49.292;8.710;2023-02-04T06:54:09;9.23;;;3.17;;
45358;SDS011;31096;49.292;8.710;2023-02-04T06:59:00;8.05;;;3.20;;
45358;SDS011;31096;49.292;8.710;2023-02-04T07:03:50;8.93;;;2.97;;
45358;SDS011;31096;49.292;8.710;2023-02-04T07:08:41;9.17;;;3.60;;
45358;SDS011;31096;49.292;8.710;2023-02-04T07:13:32;8.35;;;3.40;;
45358;SDS011;31096;49.292;8.710;2023-02-04T07:18:22;9.57;;;3.57;;
45358;SDS011;31096;49.292;8.710;2023-02-04T07:23:13;12.80;;;3.63;;
45358;SDS011;31096;49.292;8.710;2023-02-04T07:28:04;7.53;;;3.47;;
45358;SDS011;31096;49.292;8.710;2023-02-04T07:32:55;10.33;;;4.03;;
45358;SDS011;31096;49.292;8.710;2023-02-04T07:37:46;8.95;;;4.03;;
45358;SDS011;31096;49.292;8.710;2023-02-04T07:42:36;9.90;;;3.10;;
45358;SDS011;31096;49.292;8.710;2023-02-04T07:47:27;12.83;;;3.50;;
45358;SDS011;31096;49.292;8.710;2023-02-04T07:52:17;9.73;;;4.03;;
45358;SDS011;31096;49.292;8.710;2023-02-04T07:57:08;12.27;;;4.65;;
45358;SDS011;31096;49.292;8.710;2023-02-04T08:01:59;11.93;;;4.00;;
45358;SDS011;31096;49.292;8.710;2023-02-04T08:06:50;13.13;;;4.38;;
45358;SDS011;31096;49.292;8.710;2023-02-04T08:11:41;13.07;;;5.10;;
45358;SDS011;31096;49.292;8.710;2023-02-04T08:16:32;14.27;;;4.57;;
45358;SDS011;31096;49.292;8.710;2023-02-04T08:21:22;13.85;;;4.22;;
45358;SDS011;31096;49.292;8.710;2023-02-04T08:26:13;13.30;;;4.37;;
45358;SDS011;31096;49.292;8.710;2023-02-04T08:31:04;17.13;;;5.07;;
45358;SDS011;31096;49.292;8.710;2023-02-04T08:35:55;14.93;;;4.78;;
45358;SDS011;31096;49.292;8.710;2023-02-04T08:40:46;13.57;;;5.17;;
45358;SDS011;31096;49.292;8.710;2023-02-04T08:45:37;14.97;;;4.73;;
45358;SDS011;31096;49.292;8.710;2023-02-04T08:50:28;12.68;;;4.22;;
45358;SDS011;31096;49.292;8.710;2023-02-04T08:55:19;13.75;;;4.47;;
45358;SDS011;31096;49.292;8.710;2023-02-04T09:00:10;16.42;;;5.28;;
45358;SDS011;31096;49.292;8.710;2023-02-04T09:05:02;14.13;;;5.00;;
45358;SDS011;31096;49.292;8.710;2023-02-04T09:09:53;12.80;;;5.07;;
45358;SDS011;31096;49.292;8.710;2023-02-04T09:14:43;13.90;;;4.50;;
45358;SDS011;31096;49.292;8.710;2023-02-04T09:19:34;11.38;;;5.85;;
45358;SDS011;31096;49.292;8.710;2023-02-04T09:24:25;12.17;;;4.87;;
45358;SDS011;31096;49.292;8.710;2023-02-04T09:29:15;13.37;;;4.83;;
45358;SDS011;31096;49.292;8.710;2023-02-04T09:34:06;17.88;;;5.68;;
45358;SDS011;31096;49.292;8.710;2023-02-04T09:38:57;16.13;;;4.90;;
45358;SDS011;31096;49.292;8.710;2023-02-04T09:43:48;12.82;;;4.45;;
45358;SDS011;31096;49.292;8.710;2023-02-04T09:48:39;9.20;;;3.67;;
45358;SDS011;31096;49.292;8.710;2023-02-04T09:53:29;17.92;;;4.80;;
45358;SDS011;31096;49.292;8.710;2023-02-04T09:58:21;18.25;;;5.07;;
45358;SDS011;31096;49.292;8.710;2023-02-04T10:03:14;13.63;;;5.28;;
45358;SDS011;31096;49.292;8.710;2023-02-04T10:08:10;18.23;;;5.00;;
45358;SDS011;31096;49.292;8.710;2023-02-04T10:13:04;18.52;;;4.40;;
45358;SDS011;31096;49.292;8.710;2023-02-04T10:17:59;14.10;;;4.40;;
45358;SDS011;31096;49.292;8.710;2023-02-04T10:22:53;14.57;;;4.50;;
45358;SDS011;31096;49.292;8.710;2023-02-04T10:32:44;15.23;;;5.00;;
45358;SDS011;31096;49.292;8.710;2023-02-04T10:37:34;11.02;;;4.60;;
45358;SDS011;31096;49.292;8.710;2023-02-04T10:42:26;10.37;;;3.77;;
45358;SDS011;31096;49.292;8.710;2023-02-04T10:47:19;10.57;;;3.83;;
45358;SDS011;31096;49.292;8.710;2023-02-04T10:52:18;12.80;;;3.73;;
45358;SDS011;31096;49.292;8.710;2023-02-04T11:02:26;11.25;;;3.83;;
45358;SDS011;31096;49.292;8.710;2023-02-04T11:07:44;10.63;;;3.17;;
45358;SDS011;31096;49.292;8.710;2023-02-04T11:12:39;10.77;;;3.28;;
45358;SDS011;31096;49.292;8.710;2023-02-04T11:18:30;9.65;;;3.58;;
45358;SDS011;31096;49.292;8.710;2023-02-04T11:28:23;9.68;;;3.25;;
45358;SDS011;31096;49.292;8.710;2023-02-04T11:33:20;21.40;;;3.47;;
45358;SDS011;31096;49.292;8.710;2023-02-04T11:38:26;11.50;;;3.40;;
45358;SDS011;31096;49.292;8.710;2023-02-04T11:43:18;14.85;;;3.78;;
45358;SDS011;31096;49.292;8.710;2023-02-04T11:48:13;8.37;;;3.70;;
45358;SDS011;31096;49.292;8.710;2023-02-04T11:53:08;9.82;;;3.08;;
45358;SDS011;31096;49.292;8.710;2023-02-04T11:58:00;12.90;;;3.60;;
45358;SDS011;31096;49.292;8.710;2023-02-04T12:02:56;8.40;;;2.75;;
45358;SDS011;31096;49.292;8.710;2023-02-04T12:07:49;12.13;;;2.92;;
45358;SDS011;31096;49.292;8.710;2023-02-04T12:12:48;9.97;;;3.13;;
45358;SDS011;31096;49.292;8.710;2023-02-04T12:17:45;6.25;;;2.50;;
45358;SDS011;31096;49.292;8.710;2023-02-04T12:22:36;10.07;;;3.23;;
45358;SDS011;31096;49.292;8.710;2023-02-04T12:27:26;9.98;;;2.75;;
45358;SDS011;31096;49.292;8.710;2023-02-04T12:32:17;10.10;;;2.73;;
45358;SDS011;31096;49.292;8.710;2023-02-04T12:37:08;8.70;;;2.80;;
45358;SDS011;31096;49.292;8.710;2023-02-04T12:41:58;10.23;;;2.70;;
45358;SDS011;31096;49.292;8.710;2023-02-04T12:46:49;6.60;;;2.93;;
45358;SDS011;31096;49.292;8.710;2023-02-04T12:51:40;9.07;;;3.00;;
45358;SDS011;31096;49.292;8.710;2023-02-04T12:56:31;6.30;;;2.83;;
45358;SDS011;31096;49.292;8.710;2023-02-04T13:01:21;5.77;;;2.43;;
45358;SDS011;31096;49.292;8.710;2023-02-04T13:06:12;11.57;;;2.10;;
45358;SDS011;31096;49.292;8.710;2023-02-04T13:11:03;8.13;;;2.63;;
45358;SDS011;31096;49.292;8.710;2023-02-04T13:15:53;7.77;;;3.10;;
45358;SDS011;31096;49.292;8.710;2023-02-04T13:20:44;13.98;;;3.25;;
45358;SDS011;31096;49.292;8.710;2023-02-04T13:25:35;5.77;;;2.20;;
45358;SDS011;31096;49.292;8.710;2023-02-04T13:30:26;6.73;;;2.50;;
45358;SDS011;31096;49.292;8.710;2023-02-04T13:35:17;6.68;;;2.38;;
45358;SDS011;31096;49.292;8.710;2023-02-04T13:40:09;6.27;;;2.50;;
45358;SDS011;31096;49.292;8.710;2023-02-04T13:45:01;10.07;;;2.20;;
45358;SDS011;31096;49.292;8.710;2023-02-04T13:49:52;7.72;;;2.60;;
45358;SDS011;31096;49.292;8.710;2023-02-04T13:54:44;8.50;;;2.80;;
45358;SDS011;31096;49.292;8.710;2023-02-04T13:59:34;7.85;;;2.58;;
45358;SDS011;31096;49.292;8.710;2023-02-04T14:04:25;8.60;;;3.20;;
45358;SDS011;31096;49.292;8.710;2023-02-04T14:09:16;11.23;;;2.60;;
45358;SDS011;31096;49.292;8.710;2023-02-04T14:14:07;8.48;;;2.35;;
45358;SDS011;31096;49.292;8.710;2023-02-04T14:18:59;6.43;;;2.30;;
45358;SDS011;31096;49.292;8.710;2023-02-04T14:23:49;6.55;;;2.50;;
45358;SDS011;31096;49.292;8.710;2023-02-04T14:28:40;6.40;;;2.23;;
45358;SDS011;31096;49.292;8.710;2023-02-04T14:33:31;5.40;;;2.20;;
45358;SDS011;31096;49.292;8.710;2023-02-04T14:38:22;6.97;;;2.20;;
45358;SDS011;31096;49.292;8.710;2023-02-04T14:43:12;6.90;;;2.43;;
45358;SDS011;31096;49.292;8.710;2023-02-04T14:48:03;5.68;;;2.20;;
45358;SDS011;31096;49.292;8.710;2023-02-04T14:52:55;5.80;;;2.00;;
45358;SDS011;31096;49.292;8.710;2023-02-04T14:57:46;6.07;;;1.95;;
45358;SDS011;31096;49.292;8.710;2023-02-04T15:02:37;8.20;;;2.40;;
45358;SDS011;31096;49.292;8.710;2023-02-04T15:07:28;7.00;;;2.00;;
45358;SDS011;31096;49.292;8.710;2023-02-04T15:12:18;7.87;;;2.63;;
45358;SDS011;31096;49.292;8.710;2023-02-04T15:17:09;9.20;;;2.47;;
45358;SDS011;31096;49.292;8.710;2023-02-04T15:22:00;7.60;;;2.17;;
45358;SDS011;31096;49.292;8.710;2023-02-04T15:26:51;5.90;;;2.00;;
45358;SDS011;31096;49.292;8.710;2023-02-04T15:31:42;6.28;;;1.83;;
45358;SDS011;31096;49.292;8.710;2023-02-04T15:36:32;6.53;;;2.53;;
45358;SDS011;31096;49.292;8.710;2023-02-04T15:41:23;9.05;;;2.90;;
45358;SDS011;31096;49.292;8.710;2023-02-04T15:46:21;8.88;;;2.65;;
45358;SDS011;31096;49.292;8.710;2023-02-04T15:51:12;8.43;;;3.00;;
45358;SDS011;31096;49.292;8.710;2023-02-04T15:56:03;7.50;;;2.97;;
45358;SDS011;31096;49.292;8.710;2023-02-04T16:00:54;6.30;;;2.60;;
45358;SDS011;31096;49.292;8.710;2023-02-04T16:05:46;4.97;;;2.20;;
45358;SDS011;31096;49.292;8.710;2023-02-04T16:10:37;8.53;;;2.10;;
45358;SDS011;31096;49.292;8.710;2023-02-04T16:15:27;7.23;;;2.20;;
45358;SDS011;31096;49.292;8.710;2023-02-04T16:20:18;6.07;;;2.15;;
45358;SDS011;31096;49.292;8.710;2023-02-04T16:25:09;7.97;;;2.80;;
45358;SDS011;31096;49.292;8.710;2023-02-04T16:30:00;8.20;;;2.65;;
45358;SDS011;31096;49.292;8.710;2023-02-04T16:34:52;11.00;;;3.10;;
45358;SDS011;31096;49.292;8.710;2023-02-04T16:39:44;9.98;;;3.47;;
45358;SDS011;31096;49.292;8.710;2023-02-04T16:44:37;7.87;;;2.20;;
45358;SDS011;31096;49.292;8.710;2023-02-04T16:49:28;5.88;;;2.42;;
45358;SDS011;31096;49.292;8.710;2023-02-04T16:54:18;10.57;;;2.60;;
45358;SDS011;31096;49.292;8.710;2023-02-04T16:59:09;9.32;;;3.08;;
45358;SDS011;31096;49.292;8.710;2023-02-04T17:04:00;10.27;;;3.70;;
45358;SDS011;31096;49.292;8.710;2023-02-04T17:08:51;8.18;;;2.90;;
45358;SDS011;31096;49.292;8.710;2023-02-04T17:13:42;8.63;;;2.70;;
45358;SDS011;31096;49.292;8.710;2023-02-04T17:18:32;7.22;;;3.47;;
45358;SDS011;31096;49.292;8.710;2023-02-04T17:23:23;7.50;;;2.57;;
45358;SDS011;31096;49.292;8.710;2023-02-04T17:28:15;8.57;;;2.72;;
45358;SDS011;31096;49.292;8.710;2023-02-04T17:33:06;9.57;;;2.50;;
45358;SDS011;31096;49.292;8.710;2023-02-04T17:37:57;8.38;;;2.25;;
45358;SDS011;31096;49.292;8.710;2023-02-04T17:42:50;6.50;;;2.40;;
45358;SDS011;31096;49.292;8.710;2023-02-04T17:47:40;7.07;;;2.65;;
45358;SDS011;31096;49.292;8.710;2023-02-04T17:52:32;5.50;;;2.30;;
45358;SDS011;31096;49.292;8.710;2023-02-04T17:57:23;7.68;;;2.78;;
45358;SDS011;31096;49.292;8.710;2023-02-04T18:02:24;8.38;;;3.10;;
45358;SDS011;31096;49.292;8.710;2023-02-04T18:07:18;9.82;;;3.35;;
45358;SDS011;31096;49.292;8.710;2023-02-04T18:12:16;12.10;;;3.67;;
45358;SDS011;31096;49.292;8.710;2023-02-04T18:17:09;10.95;;;3.20;;
45358;SDS011;31096;49.292;8.710;2023-02-04T18:22:13;8.52;;;3.10;;
45358;SDS011;31096;49.292;8.710;2023-02-04T18:27:20;5.95;;;2.90;;
45358;SDS011;31096;49.292;8.710;2023-02-04T18:32:23;8.27;;;2.80;;
45358;SDS011;31096;49.292;8.710;2023-02-04T18:42:13;6.93;;;2.50;;
45358;SDS011;31096;49.292;8.710;2023-02-04T18:47:26;7.78;;;2.92;;
45358;SDS011;31096;49.292;8.710;2023-02-04T18:52:20;7.57;;;2.90;;
45358;SDS011;31096;49.292;8.710;2023-02-04T19:02:08;7.73;;;3.53;;
45358;SDS011;31096;49.292;8.710;2023-02-04T19:07:13;9.25;;;3.90;;
45358;SDS011;31096;49.292;8.710;2023-02-04T19:12:18;10.13;;;3.93;;
45358;SDS011;31096;49.292;8.710;2023-02-04T19:17:24;11.52;;;4.55;;
45358;SDS011;31096;49.292;8.710;2023-02-04T19:22:19;12.80;;;4.00;;
45358;SDS011;31096;49.292;8.710;2023-02-04T19:27:33;7.63;;;3.67;;
45358;SDS011;31096;49.292;8.710;2023-02-04T19:32:30;10.23;;;3.67;;
45358;SDS011;31096;49.292;8.710;2023-02-04T19:37:38;10.77;;;4.10;;
45358;SDS011;31096;49.292;8.710;2023-02-04T19:42:37;8.63;;;3.70;;
45358;SDS011;31096;49.292;8.710;2023-02-04T19:47:39;10.25;;;3.92;;
45358;SDS011;31096;49.292;8.710;2023-02-04T19:52:33;7.63;;;3.20;;
45358;SDS011;31096;49.292;8.710;2023-02-04T19:57:26;9.70;;;3.30;;
45358;SDS011;31096;49.292;8.710;2023-02-04T20:02:26;8.10;;;3.20;;
45358;SDS011;31096;49.292;8.710;2023-02-04T20:07:24;6.57;;;2.90;;
45358;SDS011;31096;49.292;8.710;2023-02-04T20:12:17;7.88;;;3.50;;
45358;SDS011;31096;49.292;8.710;2023-02-04T20:17:10;10.07;;;3.40;;
45358;SDS011;31096;49.292;8.710;2023-02-04T20:27:34;8.87;;;3.73;;
45358;SDS011;31096;49.292;8.710;2023-02-04T20:32:27;8.35;;;4.10;;
45358;SDS011;31096;49.292;8.710;2023-02-04T20:37:22;10.05;;;3.70;;
45358;SDS011;31096;49.292;8.710;2023-02-04T20:47:23;8.43;;;3.70;;
45358;SDS011;31096;49.292;8.710;2023-02-04T20:57:34;9.57;;;3.55;;
45358;SDS011;31096;49.292;8.710;2023-02-04T21:02:27;8.37;;;3.87;;
45358;SDS011;31096;49.292;8.710;2023-02-04T21:07:19;8.35;;;3.78;;
45358;SDS011;31096;49.292;8.710;2023-02-04T21:12:11;11.38;;;4.45;;
45358;SDS011;31096;49.292;8.710;2023-02-04T21:17:02;12.20;;;4.38;;
45358;SDS011;31096;49.292;8.710;2023-02-04T21:21:53;10.73;;;4.22;;
45358;SDS011;31096;49.292;8.710;2023-02-04T21:26:46;7.47;;;3.47;;
45358;SDS011;31096;49.292;8.710;2023-02-04T21:31:37;7.72;;;3.78;;
45358;SDS011;31096;49.292;8.710;2023-02-04T21:36:27;11.10;;;4.17;;
45358;SDS011;31096;49.292;8.710;2023-02-04T21:41:18;9.07;;;3.00;;
45358;SDS011;31096;49.292;8.710;2023-02-04T21:46:09;6.57;;;3.03;;
45358;SDS011;31096;49.292;8.710;2023-02-04T21:51:00;9.27;;;4.27;;
45358;SDS011;31096;49.292;8.710;2023-02-04T21:55:51;7.03;;;3.53;;
45358;SDS011;31096;49.292;8.710;2023-02-04T22:00:42;11.57;;;4.33;;
45358;SDS011;31096;49.292;8.710;2023-02-04T22:05:32;8.70;;;3.67;;
45358;SDS011;31096;49.292;8.710;2023-02-04T22:10:23;8.90;;;3.97;;
45358;SDS011;31096;49.292;8.710;2023-02-04T22:15:14;7.53;;;3.63;;
45358;SDS011;31096;49.292;8.710;2023-02-04T22:20:06;10.63;;;3.67;;
45358;SDS011;31096;49.292;8.710;2023-02-04T22:24:57;10.32;;;4.35;;
45358;SDS011;31096;49.292;8.710;2023-02-04T22:29:48;9.53;;;4.30;;
45358;SDS011;31096;49.292;8.710;2023-02-04T22:34:39;7.47;;;3.83;;
45358;SDS011;31096;49.292;8.710;2023-02-04T22:39:30;7.67;;;3.67;;
45358;SDS011;31096;49.292;8.710;2023-02-04T22:44:21;10.90;;;3.47;;
45358;SDS011;31096;49.292;8.710;2023-02-04T22:49:11;9.88;;;4.15;;
45358;SDS011;31096;49.292;8.710;2023-02-04T22:54:02;8.73;;;3.60;;
45358;SDS011;31096;49.292;8.710;2023-02-04T22:58:53;7.45;;;3.78;;
45358;SDS011;31096;49.292;8.710;2023-02-04T23:03:44;9.90;;;3.33;;
45358;SDS011;31096;49.292;8.710;2023-02-04T23:08:35;7.90;;;3.73;;
45358;SDS011;31096;49.292;8.710;2023-02-04T23:13:26;9.15;;;4.00;;
45358;SDS011;31096;49.292;8.710;2023-02-04T23:18:16;10.25;;;4.30;;
45358;SDS011;31096;49.292;8.710;2023-02-04T23:23:07;10.05;;;4.85;;
45358;SDS011;31096;49.292;8.710;2023-02-04T23:28:00;6.65;;;3.70;;
45358;SDS011;31096;49.292;8.710;2023-02-04T23:32:51;7.93;;;3.95;;
45358;SDS011;31096;49.292;8.710;2023-02-04T23:37:42;8.30;;;4.23;;
45358;SDS011;31096;49.292;8.710;2023-02-04T23:42:33;7.63;;;4.30;;
45358;SDS011;31096;49.292;8.710;2023-02-04T23:47:24;7.90;;;3.57;;
45358;SDS011;31096;49.292;8.710;2023-02-04T23:52:14;8.00;;;4.13;;
45358;SDS011;31096;49.292;8.710;2023-02-04T23:57:05;9.25;;;3.70;;
